Artesia, California
Current Conditions -  °F | °C
As of 9:53 AM on Friday 21 Nov 2014 (Local Time) from KFUL Reporting Station
Clear Clear  
Wind Chill: 19°   Ceiling: Unl
Heat Index: 19°   Visibility: 10mi
Dew Point: 10°   Wind: 3mph
Humidity: 56%   Direction: 80°E
Pressure: 29.97"   Gusts: NA
Location:  33.86°N, 118.07°W
Report Text: KFUL 211753Z 08003KT 10SM CLR 19/10 A2997 RMK AO2 SLP148 T01890100 10189 20122 50011
Loading
Personal Weather Stations






























Interactive Weather Map New forecast layout! Learn more

10-Day Weather Forecast

Advertisements
Track Severe Weather on mobile